createdAt,value
2019-02-27T00:01:55.310Z,5.60
2019-02-27T00:04:25.377Z,5.50
2019-02-27T00:06:57.639Z,5.50
2019-02-27T00:09:27.741Z,5.60
2019-02-27T00:11:57.782Z,5.60
2019-02-27T00:14:28.864Z,5.60
2019-02-27T00:16:59.551Z,5.70
2019-02-27T00:19:31.437Z,5.80
2019-02-27T00:22:01.624Z,5.80
2019-02-27T00:24:31.623Z,5.70
2019-02-27T00:27:01.554Z,5.70
2019-02-27T00:29:31.629Z,5.70
2019-02-27T00:32:02.004Z,5.70
2019-02-27T00:34:33.013Z,5.70
2019-02-27T00:37:03.945Z,5.70
2019-02-27T00:39:34.246Z,5.80
2019-02-27T00:42:04.336Z,5.70
2019-02-27T00:44:34.902Z,5.70
2019-02-27T00:47:04.963Z,5.70
2019-02-27T00:49:34.899Z,5.80
2019-02-27T00:52:04.913Z,6.00
2019-02-27T00:54:34.641Z,5.90
2019-02-27T00:57:04.449Z,5.90
2019-02-27T00:59:34.608Z,5.90
2019-02-27T01:02:04.342Z,5.80
2019-02-27T01:04:35.669Z,5.80
2019-02-27T01:07:05.543Z,5.90
2019-02-27T01:09:39.030Z,5.90
2019-02-27T01:12:06.855Z,5.90
2019-02-27T01:14:37.175Z,6.00
2019-02-27T01:17:07.672Z,6.10
2019-02-27T01:19:39.227Z,6.00
2019-02-27T01:22:09.091Z,6.10
2019-02-27T01:24:38.915Z,5.90
2019-02-27T01:27:08.564Z,6.10
2019-02-27T01:29:38.354Z,6.10
2019-02-27T01:32:08.182Z,6.10
2019-02-27T01:34:37.991Z,6.10
2019-02-27T01:37:17.578Z,6.00
2019-02-27T01:39:47.579Z,6.00
2019-02-27T01:42:17.617Z,5.90
2019-02-27T01:44:47.892Z,5.80
2019-02-27T01:47:19.051Z,5.90
2019-02-27T01:49:49.161Z,5.90
2019-02-27T01:52:19.914Z,5.90
2019-02-27T01:54:49.911Z,5.80
2019-02-27T01:57:20.271Z,5.60
2019-02-27T01:59:51.055Z,5.40
2019-02-27T02:02:21.250Z,5.50
2019-02-27T02:04:53.754Z,5.30
2019-02-27T02:07:23.919Z,5.20
2019-02-27T02:09:55.251Z,5.10
2019-02-27T02:12:29.155Z,4.90
2019-02-27T02:15:10.554Z,4.90
2019-02-27T02:18:20.701Z,4.80
2019-02-27T02:20:55.309Z,4.80
2019-02-27T02:24:21.712Z,4.70
2019-02-27T02:27:18.643Z,4.60
2019-02-27T02:30:33.801Z,4.50
2019-02-27T02:33:30.473Z,4.40
2019-02-27T02:36:28.797Z,4.30
2019-02-27T02:39:54.188Z,4.30
2019-02-27T02:42:59.185Z,4.20
2019-02-27T02:46:00.387Z,4.20
2019-02-27T02:49:16.340Z,4.30
2019-02-27T02:52:27.981Z,4.20
2019-02-27T02:55:20.820Z,4.80
2019-02-27T02:58:17.714Z,5.40
2019-02-27T03:00:56.542Z,5.20
2019-02-27T03:03:41.493Z,5.00
2019-02-27T03:06:59.134Z,4.90
2019-02-27T03:10:19.360Z,4.80
2019-02-27T03:13:05.817Z,4.80
2019-02-27T03:16:10.759Z,4.70
2019-02-27T03:19:41.286Z,4.80
2019-02-27T03:22:43.551Z,4.70
2019-02-27T03:25:40.695Z,4.70
2019-02-27T03:28:59.347Z,4.50
2019-02-27T03:32:15.424Z,4.40
2019-02-27T03:35:29.649Z,4.30
2019-02-27T03:38:24.103Z,4.30
2019-02-27T03:41:41.479Z,4.20
2019-02-27T03:44:40.035Z,4.10
2019-02-27T03:47:40.825Z,4.10
2019-02-27T03:50:49.915Z,4.10
2019-02-27T03:53:26.729Z,4.30
2019-02-27T03:56:44.780Z,4.40
2019-02-27T03:59:59.097Z,4.60
2019-02-27T04:03:18.817Z,4.70
2019-02-27T04:06:53.007Z,4.70
2019-02-27T04:09:22.043Z,4.90
2019-02-27T04:11:52.286Z,4.70
2019-02-27T04:14:30.727Z,4.60
2019-02-27T04:17:05.151Z,4.40
2019-02-27T04:19:38.827Z,4.40
2019-02-27T04:22:04.837Z,4.50
2019-02-27T04:24:35.183Z,4.20
2019-02-27T04:27:05.347Z,4.30
2019-02-27T04:29:40.767Z,4.40
2019-02-27T04:32:09.591Z,4.40
2019-02-27T04:34:39.074Z,4.30
2019-02-27T04:37:09.599Z,4.30
2019-02-27T04:39:40.032Z,4.00
2019-02-27T04:42:10.599Z,3.80
2019-02-27T04:44:40.550Z,3.70
2019-02-27T04:47:10.918Z,3.70
2019-02-27T04:49:41.159Z,3.90
2019-02-27T04:52:10.988Z,3.90
2019-02-27T04:54:41.532Z,4.10
2019-02-27T04:57:12.162Z,4.10
2019-02-27T04:59:42.351Z,4.10
2019-02-27T05:02:14.446Z,4.10
2019-02-27T05:04:43.777Z,4.20
2019-02-27T05:07:13.778Z,4.10
2019-02-27T05:09:43.515Z,4.00
2019-02-27T05:12:13.337Z,3.90
2019-02-27T05:14:43.206Z,3.70
2019-02-27T05:17:13.216Z,3.90
2019-02-27T05:19:43.859Z,4.00
2019-02-27T05:22:13.882Z,3.80
2019-02-27T05:24:44.129Z,3.70
2019-02-27T05:27:14.128Z,3.60
2019-02-27T05:29:44.397Z,3.50
2019-02-27T05:32:33.539Z,3.40
2019-02-27T05:35:03.906Z,3.30
2019-02-27T05:37:36.110Z,3.30
2019-02-27T05:40:06.982Z,3.30
2019-02-27T05:42:39.067Z,3.60
2019-02-27T05:45:10.702Z,3.60
2019-02-27T05:47:44.866Z,3.70
2019-02-27T05:50:12.528Z,3.70
2019-02-27T05:52:42.406Z,3.60
2019-02-27T05:55:12.494Z,3.50
2019-02-27T05:57:42.578Z,3.60
2019-02-27T06:00:15.152Z,3.40
2019-02-27T06:02:45.682Z,3.20
2019-02-27T06:05:16.110Z,3.00
2019-02-27T06:07:46.219Z,3.00
2019-02-27T06:10:35.434Z,2.80
2019-02-27T06:13:05.775Z,2.70
2019-02-27T06:15:35.627Z,2.50
2019-02-27T06:18:05.391Z,2.50
2019-02-27T06:20:35.370Z,2.50
2019-02-27T06:23:07.211Z,2.50
2019-02-27T06:25:36.774Z,2.60
2019-02-27T06:28:06.886Z,2.70
2019-02-27T06:30:36.689Z,2.80
2019-02-27T06:33:06.498Z,2.80
2019-02-27T06:35:36.335Z,2.60
2019-02-27T06:38:06.670Z,2.50
2019-02-27T06:40:44.855Z,2.50
2019-02-27T06:43:14.722Z,2.70
2019-02-27T06:45:46.369Z,3.00
2019-02-27T06:48:15.918Z,3.00
2019-02-27T06:50:45.717Z,2.80
2019-02-27T06:53:16.437Z,2.90
2019-02-27T06:55:46.397Z,3.00
2019-02-27T06:58:16.775Z,3.10
2019-02-27T07:00:47.075Z,3.20
2019-02-27T07:03:17.070Z,3.30
2019-02-27T07:05:48.249Z,3.40
2019-02-27T07:08:18.678Z,3.30
2019-02-27T07:10:48.498Z,3.30
2019-02-27T07:13:18.376Z,3.40
2019-02-27T07:15:48.851Z,3.40
2019-02-27T07:18:18.979Z,3.60
2019-02-27T07:20:48.852Z,3.60
2019-02-27T07:23:22.653Z,3.60
2019-02-27T07:25:50.395Z,3.80
2019-02-27T07:28:20.347Z,3.90
2019-02-27T07:30:50.127Z,4.00
2019-02-27T07:33:19.954Z,4.30
2019-02-27T07:35:49.819Z,4.20
2019-02-27T07:38:21.604Z,4.30
2019-02-27T07:40:51.754Z,4.40
2019-02-27T07:43:21.848Z,4.50
2019-02-27T07:45:53.687Z,4.50
2019-02-27T07:48:32.304Z,4.50
2019-02-27T07:51:02.842Z,4.50
2019-02-27T07:53:33.026Z,4.50
2019-02-27T07:56:03.070Z,4.50
2019-02-27T07:58:34.470Z,4.50
2019-02-27T08:01:04.799Z,4.50
2019-02-27T08:03:35.380Z,4.50
2019-02-27T08:06:05.217Z,4.50
2019-02-27T08:08:34.963Z,4.50
2019-02-27T08:11:04.881Z,4.60
2019-02-27T08:13:34.872Z,4.60
2019-02-27T08:16:04.826Z,4.70
2019-02-27T08:18:37.717Z,4.70
2019-02-27T08:21:06.170Z,4.80
2019-02-27T08:23:36.496Z,4.90
2019-02-27T08:26:06.616Z,4.90
2019-02-27T08:28:37.074Z,5.00
2019-02-27T08:31:06.870Z,5.10
2019-02-27T08:33:37.060Z,5.30
2019-02-27T08:36:07.423Z,5.40
2019-02-27T08:38:37.742Z,5.50
2019-02-27T08:41:07.850Z,5.70
2019-02-27T08:43:41.212Z,6.10
2019-02-27T08:46:10.542Z,9.00
2019-02-27T08:48:43.112Z,12.60
2019-02-27T08:51:13.322Z,15.00
2019-02-27T08:53:43.012Z,16.30
2019-02-27T08:56:12.950Z,16.70
2019-02-27T08:58:42.826Z,16.70
2019-02-27T09:01:13.095Z,17.40
2019-02-27T09:03:42.872Z,17.30
2019-02-27T09:06:12.694Z,18.50
2019-02-27T09:08:44.095Z,19.30
2019-02-27T09:11:14.780Z,19.60
2019-02-27T09:13:44.718Z,20.30
2019-02-27T09:16:14.620Z,20.00
2019-02-27T09:18:44.502Z,20.30
2019-02-27T09:21:14.341Z,20.90
2019-02-27T09:23:44.203Z,20.70
2019-02-27T09:26:14.229Z,20.60
2019-02-27T09:28:44.544Z,20.70
2019-02-27T09:31:15.261Z,21.00
2019-02-27T09:33:47.079Z,21.30
2019-02-27T09:36:17.511Z,21.00
2019-02-27T09:38:47.797Z,20.30
2019-02-27T09:41:17.875Z,20.90
2019-02-27T09:43:47.682Z,21.10
2019-02-27T09:46:19.499Z,21.40
2019-02-27T09:48:50.426Z,21.80
2019-02-27T09:51:22.308Z,21.50
2019-02-27T09:53:52.841Z,22.00
2019-02-27T09:56:22.990Z,22.10
2019-02-27T09:58:53.344Z,23.60
2019-02-27T10:01:23.528Z,23.00
2019-02-27T10:03:55.345Z,23.20
2019-02-27T10:06:25.549Z,23.00
2019-02-27T10:08:56.393Z,23.30
2019-02-27T10:11:27.195Z,22.20
2019-02-27T10:13:57.033Z,22.10
2019-02-27T10:16:26.854Z,22.10
2019-02-27T10:18:57.202Z,22.60
2019-02-27T10:21:27.038Z,23.00
2019-02-27T10:23:57.133Z,23.20
2019-02-27T10:26:27.518Z,23.00
2019-02-27T10:28:57.706Z,23.00
2019-02-27T10:31:27.983Z,23.70
2019-02-27T10:33:58.106Z,23.00
2019-02-27T10:36:28.304Z,23.30
2019-02-27T10:38:59.390Z,24.00
2019-02-27T10:41:30.902Z,24.00
2019-02-27T10:44:01.131Z,24.80
2019-02-27T10:46:32.098Z,25.70
2019-02-27T10:49:02.331Z,25.40
2019-02-27T10:51:32.874Z,24.10
2019-02-27T10:54:05.327Z,24.50
2019-02-27T10:56:35.026Z,24.80
2019-02-27T10:59:04.899Z,24.20
2019-02-27T11:01:36.377Z,24.10
2019-02-27T11:04:07.139Z,23.60
2019-02-27T11:06:38.321Z,23.80
2019-02-27T11:09:26.734Z,23.70
2019-02-27T11:11:57.091Z,23.50
2019-02-27T11:14:31.760Z,23.60
2019-02-27T11:17:02.731Z,23.40
2019-02-27T11:19:31.950Z,23.00
2019-02-27T11:22:01.835Z,23.00
2019-02-27T11:24:32.275Z,22.70
2019-02-27T11:27:06.206Z,22.60
2019-02-27T11:29:36.759Z,22.20
2019-02-27T11:32:07.389Z,22.00
2019-02-27T11:34:37.487Z,22.00
2019-02-27T11:37:07.304Z,22.10
2019-02-27T11:39:37.710Z,21.70
2019-02-27T11:42:07.649Z,22.20
2019-02-27T11:44:37.738Z,21.80
2019-02-27T11:47:11.054Z,22.30
2019-02-27T11:49:39.391Z,22.80
2019-02-27T11:52:09.283Z,23.10
2019-02-27T11:54:42.944Z,23.10
2019-02-27T11:57:12.175Z,23.00
2019-02-27T11:59:46.569Z,22.90
2019-02-27T12:02:14.797Z,23.10
2019-02-27T12:04:44.803Z,23.20
2019-02-27T12:07:17.477Z,23.40
2019-02-27T12:09:47.199Z,23.50
2019-02-27T12:12:17.219Z,23.70
2019-02-27T12:14:47.176Z,23.30
2019-02-27T12:17:17.314Z,23.50
2019-02-27T12:19:47.301Z,23.90
2019-02-27T12:22:17.154Z,24.00
2019-02-27T12:24:47.067Z,24.20
2019-02-27T12:27:37.659Z,24.70
2019-02-27T12:29:49.526Z,24.70
2019-02-27T12:32:21.937Z,24.80
2019-02-27T12:34:52.433Z,24.30
2019-02-27T12:37:28.202Z,23.80
2019-02-27T12:39:53.753Z,23.80
2019-02-27T12:42:23.590Z,23.80
2019-02-27T12:44:54.624Z,23.50
2019-02-27T12:47:24.617Z,23.60
2019-02-27T12:49:54.934Z,23.80
2019-02-27T12:52:24.919Z,23.50
2019-02-27T12:54:55.072Z,23.40
2019-02-27T12:57:25.108Z,23.40
2019-02-27T12:59:55.022Z,23.20
2019-02-27T13:02:35.231Z,23.10
2019-02-27T13:04:57.871Z,23.10
2019-02-27T13:07:27.867Z,23.10
2019-02-27T13:09:58.629Z,23.10
2019-02-27T13:12:29.642Z,23.20
2019-02-27T13:15:00.351Z,22.80
2019-02-27T13:17:30.266Z,22.50
2019-02-27T13:20:00.103Z,22.40
2019-02-27T13:22:30.157Z,22.10
2019-02-27T13:25:00.404Z,22.10
2019-02-27T13:27:30.787Z,22.30
2019-02-27T13:30:08.880Z,22.40
2019-02-27T13:32:33.064Z,22.30
2019-02-27T13:35:02.898Z,22.20
2019-02-27T13:37:33.550Z,22.10
2019-02-27T13:40:05.050Z,22.00
2019-02-27T13:42:35.503Z,22.00
2019-02-27T13:45:07.479Z,21.20
2019-02-27T13:47:38.591Z,20.50
2019-02-27T13:50:08.733Z,20.30
2019-02-27T13:52:38.855Z,19.60
2019-02-27T13:55:11.210Z,19.20
2019-02-27T13:57:41.349Z,19.00
2019-02-27T14:00:20.434Z,18.80
2019-02-27T14:02:50.176Z,18.60
2019-02-27T14:05:20.886Z,18.60
2019-02-27T14:07:51.239Z,18.50
2019-02-27T14:10:21.910Z,18.30
2019-02-27T14:12:51.927Z,18.20
2019-02-27T14:15:26.971Z,18.00
2019-02-27T14:17:54.403Z,17.90
2019-02-27T14:20:26.937Z,17.90
2019-02-27T14:22:56.481Z,17.90
2019-02-27T14:25:31.023Z,17.90
2019-02-27T14:27:59.339Z,17.80
2019-02-27T14:30:35.455Z,17.70
2019-02-27T14:33:04.434Z,17.80
2019-02-27T14:35:36.231Z,17.70
2019-02-27T14:38:06.206Z,17.80
2019-02-27T14:40:40.043Z,17.70
2019-02-27T14:43:08.231Z,17.70
2019-02-27T14:45:40.700Z,17.60
2019-02-27T14:48:11.361Z,17.50
2019-02-27T14:50:41.594Z,17.50
2019-02-27T14:53:12.226Z,17.50
2019-02-27T14:55:43.026Z,17.50
2019-02-27T14:58:13.021Z,17.50
2019-02-27T15:00:43.366Z,17.40
2019-02-27T15:03:13.678Z,17.30
2019-02-27T15:05:45.256Z,17.30
2019-02-27T15:08:15.594Z,17.30
2019-02-27T15:10:46.558Z,17.20
2019-02-27T15:13:17.010Z,17.20
2019-02-27T15:15:46.794Z,17.10
2019-02-27T15:18:17.469Z,17.10
2019-02-27T15:20:47.570Z,17.10
2019-02-27T15:23:17.470Z,17.10
2019-02-27T15:25:48.068Z,17.10
2019-02-27T15:28:18.364Z,17.00
2019-02-27T15:30:48.776Z,17.00
2019-02-27T15:33:18.683Z,17.00
2019-02-27T15:35:48.526Z,17.00
2019-02-27T15:38:18.477Z,16.90
2019-02-27T15:40:48.397Z,16.80
2019-02-27T15:43:18.353Z,16.80
2019-02-27T15:45:49.122Z,16.80
2019-02-27T15:48:19.231Z,16.70
2019-02-27T15:50:49.796Z,16.70
2019-02-27T15:53:19.933Z,16.70
2019-02-27T15:55:49.770Z,16.60
2019-02-27T15:58:19.651Z,16.60
2019-02-27T16:00:52.578Z,16.60
2019-02-27T16:03:22.926Z,16.50
2019-02-27T16:05:52.909Z,16.40
2019-02-27T16:08:23.468Z,16.30
2019-02-27T16:10:55.103Z,16.20
2019-02-27T16:13:25.566Z,16.20
2019-02-27T16:15:55.587Z,16.10
2019-02-27T16:18:25.339Z,16.00
2019-02-27T16:20:55.546Z,16.00
2019-02-27T16:23:25.222Z,15.90
2019-02-27T16:25:56.557Z,15.80
2019-02-27T16:28:26.449Z,15.80
2019-02-27T16:30:56.360Z,15.70
2019-02-27T16:33:28.447Z,15.60
2019-02-27T16:35:57.898Z,15.50
2019-02-27T16:38:28.439Z,15.40
2019-02-27T16:41:00.014Z,15.40
2019-02-27T16:43:33.218Z,15.40
2019-02-27T16:46:07.733Z,15.40
2019-02-27T16:48:35.358Z,15.40
2019-02-27T16:51:06.407Z,15.30
2019-02-27T16:53:36.949Z,15.10
2019-02-27T16:56:08.342Z,15.00
2019-02-27T16:58:39.136Z,14.90
2019-02-27T17:01:09.251Z,14.70
2019-02-27T17:03:39.231Z,14.50
2019-02-27T17:06:09.538Z,14.30
2019-02-27T17:08:39.712Z,14.10
2019-02-27T17:11:09.850Z,13.90
2019-02-27T17:13:39.671Z,13.70
2019-02-27T17:16:10.794Z,13.40
2019-02-27T17:18:41.607Z,13.30
2019-02-27T17:21:11.798Z,13.00
2019-02-27T17:23:45.405Z,12.80
2019-02-27T17:26:13.516Z,12.60
2019-02-27T17:28:43.387Z,12.50
2019-02-27T17:31:13.805Z,12.40
2019-02-27T17:33:44.157Z,12.30
2019-02-27T17:36:14.741Z,12.20
2019-02-27T17:38:45.034Z,12.10
2019-02-27T17:41:15.946Z,12.00
2019-02-27T17:43:45.840Z,11.80
2019-02-27T17:46:20.483Z,11.70
2019-02-27T17:48:47.390Z,11.50
2019-02-27T17:51:17.883Z,11.40
2019-02-27T17:53:48.807Z,11.40
2019-02-27T17:56:19.187Z,11.40
2019-02-27T17:58:49.397Z,11.30
2019-02-27T18:01:24.928Z,11.30
2019-02-27T18:03:53.835Z,11.20
2019-02-27T18:06:23.935Z,11.10
2019-02-27T18:08:53.799Z,11.10
2019-02-27T18:11:23.604Z,11.00
2019-02-27T18:13:53.393Z,10.90
2019-02-27T18:16:24.547Z,10.90
2019-02-27T18:18:54.998Z,10.70
2019-02-27T18:21:25.158Z,10.70
2019-02-27T18:23:58.515Z,10.60
2019-02-27T18:26:26.733Z,10.60
2019-02-27T18:28:57.395Z,10.60
2019-02-27T18:31:27.469Z,10.50
2019-02-27T18:33:57.702Z,10.40
2019-02-27T18:36:28.098Z,10.20
2019-02-27T18:39:01.635Z,10.10
2019-02-27T18:41:29.350Z,10.00
2019-02-27T18:44:01.286Z,9.90
2019-02-27T18:46:32.290Z,9.80
2019-02-27T18:49:02.151Z,9.70
2019-02-27T18:51:35.166Z,9.80
2019-02-27T18:54:26.039Z,9.70
2019-02-27T18:56:55.935Z,9.60
2019-02-27T18:59:29.390Z,9.70
2019-02-27T19:02:21.214Z,9.80
2019-02-27T19:04:52.984Z,9.80
2019-02-27T19:07:25.108Z,9.80
2019-02-27T19:09:58.502Z,9.90
2019-02-27T19:12:30.692Z,10.00
2019-02-27T19:15:03.101Z,10.00
2019-02-27T19:17:34.534Z,9.80
2019-02-27T19:20:06.502Z,9.90
2019-02-27T19:22:36.763Z,9.90
2019-02-27T19:25:06.872Z,9.90
2019-02-27T19:27:38.786Z,9.80
2019-02-27T19:30:10.751Z,9.70
2019-02-27T19:32:42.799Z,9.60
2019-02-27T19:35:12.713Z,9.60
2019-02-27T19:37:48.886Z,9.60
2019-02-27T19:40:21.342Z,9.60
2019-02-27T19:42:58.195Z,9.50
2019-02-27T19:45:28.145Z,9.50
2019-02-27T19:47:59.704Z,9.40
2019-02-27T19:50:30.061Z,9.30
2019-02-27T19:53:02.980Z,9.20
2019-02-27T19:55:32.373Z,9.20
2019-02-27T19:58:02.753Z,9.10
2019-02-27T20:00:35.026Z,9.00
2019-02-27T20:03:04.393Z,9.00
2019-02-27T20:05:36.260Z,9.00
2019-02-27T20:08:09.831Z,9.00
2019-02-27T20:10:38.760Z,9.00
2019-02-27T20:13:08.676Z,9.00
2019-02-27T20:15:39.290Z,9.00
2019-02-27T20:18:09.279Z,9.00
2019-02-27T20:20:41.006Z,8.90
2019-02-27T20:23:11.610Z,8.90
2019-02-27T20:25:44.146Z,8.80
2019-02-27T20:28:13.295Z,8.80
2019-02-27T20:30:43.227Z,8.80
2019-02-27T20:33:13.049Z,8.70
2019-02-27T20:35:43.541Z,8.80
2019-02-27T20:38:16.173Z,8.80
2019-02-27T20:40:45.042Z,8.80
2019-02-27T20:43:15.767Z,8.70
2019-02-27T20:45:45.862Z,8.60
2019-02-27T20:48:16.026Z,8.40
2019-02-27T20:50:46.644Z,8.30
2019-02-27T20:53:16.802Z,8.10
2019-02-27T20:55:46.854Z,8.00
2019-02-27T20:58:17.515Z,7.90
2019-02-27T21:00:47.676Z,7.90
2019-02-27T21:03:17.961Z,7.90
2019-02-27T21:05:48.641Z,7.80
2019-02-27T21:08:18.727Z,7.70
2019-02-27T21:10:54.747Z,7.60
2019-02-27T21:13:21.036Z,7.50
2019-02-27T21:15:51.069Z,7.50
2019-02-27T21:18:21.607Z,7.40
2019-02-27T21:20:51.665Z,7.40
2019-02-27T21:23:22.015Z,7.40
2019-02-27T21:25:52.384Z,7.30
2019-02-27T21:28:22.184Z,7.30
2019-02-27T21:30:53.288Z,7.30
2019-02-27T21:33:26.153Z,7.30
2019-02-27T21:36:02.491Z,7.40
2019-02-27T21:38:31.292Z,7.40
2019-02-27T21:41:02.846Z,7.50
2019-02-27T21:43:32.722Z,7.70
2019-02-27T21:46:02.623Z,7.60
2019-02-27T21:48:32.471Z,7.60
2019-02-27T21:51:02.846Z,7.60
2019-02-27T21:53:32.874Z,7.80
2019-02-27T21:56:03.009Z,7.70
2019-02-27T21:58:33.146Z,7.70
2019-02-27T22:01:03.759Z,7.60
2019-02-27T22:03:35.224Z,7.50
2019-02-27T22:06:05.097Z,7.50
2019-02-27T22:08:36.132Z,7.50
2019-02-27T22:11:06.692Z,7.40
2019-02-27T22:13:36.811Z,7.40
2019-02-27T22:16:06.681Z,7.30
2019-02-27T22:18:36.562Z,7.30
2019-02-27T22:21:06.453Z,7.30
2019-02-27T22:23:36.786Z,7.20
2019-02-27T22:26:07.195Z,7.20
2019-02-27T22:28:37.504Z,7.20
2019-02-27T22:31:07.707Z,7.00
2019-02-27T22:33:37.619Z,7.00
2019-02-27T22:36:12.293Z,7.00
2019-02-27T22:38:39.542Z,7.20
2019-02-27T22:41:10.195Z,7.30
2019-02-27T22:43:40.366Z,7.20
2019-02-27T22:46:10.202Z,7.20
2019-02-27T22:48:40.963Z,7.10
2019-02-27T22:51:12.567Z,7.00
2019-02-27T22:53:42.637Z,6.90
2019-02-27T22:56:15.788Z,7.00
2019-02-27T22:58:43.908Z,7.10
2019-02-27T23:01:27.275Z,7.00
2019-02-27T23:04:08.593Z,7.10
2019-02-27T23:06:38.713Z,6.90
2019-02-27T23:09:12.155Z,7.00
2019-02-27T23:11:42.971Z,6.90
2019-02-27T23:14:12.978Z,6.80
2019-02-27T23:16:43.317Z,6.80
2019-02-27T23:19:13.314Z,6.70
2019-02-27T23:21:43.634Z,6.60
2019-02-27T23:24:13.657Z,6.40
2019-02-27T23:26:44.448Z,6.30
2019-02-27T23:29:14.544Z,6.30
2019-02-27T23:31:44.363Z,6.40
2019-02-27T23:34:14.167Z,6.40
2019-02-27T23:36:43.940Z,6.40
2019-02-27T23:39:13.805Z,6.40
2019-02-27T23:41:43.674Z,6.40
2019-02-27T23:44:13.542Z,6.40
2019-02-27T23:46:49.734Z,6.50
2019-02-27T23:49:14.911Z,6.60
2019-02-27T23:51:47.728Z,6.70
2019-02-27T23:54:16.532Z,6.70
2019-02-27T23:56:51.915Z,6.70
2019-02-27T23:59:21.057Z,6.70
